Terminal Aerodrome Forecast
Issued by NWS

Home | Current Version | Previous Version | Text Only | Print | Product List | Glossary On
Versions: 1 2 3 4 5 6 7 8 9 10 11 12 13
000
FTUS41 KAKQ 270558
TAFPHF
TAF
KPHF 270558Z 2706/2806 15004KT P6SM BKN060 BKN080
     FM270900 18005KT P6SM BKN050
     FM271600 22009KT P6SM BKN060
     FM272100 21009KT P6SM VCSH BKN060
     FM280000 21008KT 5SM -RA OVC060=

USA.gov is the U.S. government's official web portal to all federal, state and local government web resources and services.